sensor_id;sensor_type;location;lat;lon;timestamp;pressure;altitude;pressure_sealevel;temperature;humidity
18749;BME280;9503;53.560;10.246;2022-09-27T00:01:48;98685.09;;;12.07;100.00
18749;BME280;9503;53.560;10.246;2022-09-27T00:04:15;98686.00;;;12.12;100.00
18749;BME280;9503;53.560;10.246;2022-09-27T00:06:41;98685.88;;;12.00;100.00
18749;BME280;9503;53.560;10.246;2022-09-27T00:09:08;98692.72;;;11.98;100.00
18749;BME280;9503;53.560;10.246;2022-09-27T00:11:36;98679.88;;;12.00;100.00
18749;BME280;9503;53.560;10.246;2022-09-27T00:14:04;98682.59;;;12.13;100.00
18749;BME280;9503;53.560;10.246;2022-09-27T00:16:35;98677.31;;;12.03;100.00
18749;BME280;9503;53.560;10.246;2022-09-27T00:19:04;98670.44;;;11.97;100.00
18749;BME280;9503;53.560;10.246;2022-09-27T00:21:31;98671.28;;;11.96;100.00
18749;BME280;9503;53.560;10.246;2022-09-27T00:23:58;98672.91;;;11.85;100.00
18749;BME280;9503;53.560;10.246;2022-09-27T00:26:25;98671.38;;;12.07;100.00
18749;BME280;9503;53.560;10.246;2022-09-27T00:28:52;98669.75;;;12.15;100.00
18749;BME280;9503;53.560;10.246;2022-09-27T00:31:20;98665.53;;;12.22;100.00
18749;BME280;9503;53.560;10.246;2022-09-27T00:33:50;98663.75;;;12.13;100.00
18749;BME280;9503;53.560;10.246;2022-09-27T00:36:19;98665.47;;;12.15;100.00
18749;BME280;9503;53.560;10.246;2022-09-27T00:38:46;98659.41;;;12.09;100.00
18749;BME280;9503;53.560;10.246;2022-09-27T00:41:14;98661.19;;;12.17;100.00
18749;BME280;9503;53.560;10.246;2022-09-27T00:43:45;98661.19;;;12.16;100.00
18749;BME280;9503;53.560;10.246;2022-09-27T00:46:14;98657.72;;;12.11;100.00
18749;BME280;9503;53.560;10.246;2022-09-27T00:48:42;98653.44;;;12.11;100.00
18749;BME280;9503;53.560;10.246;2022-09-27T00:51:10;98651.81;;;12.20;100.00
18749;BME280;9503;53.560;10.246;2022-09-27T00:53:41;98646.66;;;12.20;100.00
18749;BME280;9503;53.560;10.246;2022-09-27T00:56:15;98647.47;;;12.14;100.00
18749;BME280;9503;53.560;10.246;2022-09-27T00:58:45;98646.66;;;12.20;100.00
18749;BME280;9503;53.560;10.246;2022-09-27T01:01:13;98643.25;;;12.24;100.00
18749;BME280;9503;53.560;10.246;2022-09-27T01:03:43;98644.16;;;12.29;100.00
18749;BME280;9503;53.560;10.246;2022-09-27T01:06:13;98637.31;;;12.29;100.00
18749;BME280;9503;53.560;10.246;2022-09-27T01:08:40;98637.25;;;12.22;100.00
18749;BME280;9503;53.560;10.246;2022-09-27T01:11:20;98627.00;;;12.25;100.00
18749;BME280;9503;53.560;10.246;2022-09-27T01:14:03;98634.69;;;12.25;100.00
18749;BME280;9503;53.560;10.246;2022-09-27T01:16:39;98625.31;;;12.27;100.00
18749;BME280;9503;53.560;10.246;2022-09-27T01:19:16;98626.13;;;12.24;100.00
18749;BME280;9503;53.560;10.246;2022-09-27T01:21:59;98620.13;;;12.22;100.00
18749;BME280;9503;53.560;10.246;2022-09-27T01:24:54;98620.13;;;12.25;100.00
18749;BME280;9503;53.560;10.246;2022-09-27T01:30:29;98615.84;;;12.26;100.00
18749;BME280;9503;53.560;10.246;2022-09-27T01:33:12;98611.56;;;12.25;100.00
18749;BME280;9503;53.560;10.246;2022-09-27T01:35:50;98610.72;;;12.24;100.00
18749;BME280;9503;53.560;10.246;2022-09-27T01:38:25;98612.47;;;12.27;100.00
18749;BME280;9503;53.560;10.246;2022-09-27T01:41:01;98609.81;;;12.17;100.00
18749;BME280;9503;53.560;10.246;2022-09-27T01:43:33;98610.66;;;12.15;100.00
18749;BME280;9503;53.560;10.246;2022-09-27T01:46:07;98596.97;;;12.16;100.00
18749;BME280;9503;53.560;10.246;2022-09-27T01:48:40;98591.84;;;12.19;100.00
18749;BME280;9503;53.560;10.246;2022-09-27T01:51:11;98596.06;;;12.11;100.00
18749;BME280;9503;53.560;10.246;2022-09-27T01:53:41;98591.81;;;12.17;100.00
18749;BME280;9503;53.560;10.246;2022-09-27T01:56:15;98591.88;;;12.22;100.00
18749;BME280;9503;53.560;10.246;2022-09-27T01:58:47;98587.59;;;12.24;100.00
18749;BME280;9503;53.560;10.246;2022-09-27T02:01:17;98590.22;;;12.32;100.00
18749;BME280;9503;53.560;10.246;2022-09-27T02:03:47;98584.25;;;12.34;100.00
18749;BME280;9503;53.560;10.246;2022-09-27T02:06:16;98583.34;;;12.29;100.00
18749;BME280;9503;53.560;10.246;2022-09-27T02:08:48;98583.34;;;12.28;100.00
18749;BME280;9503;53.560;10.246;2022-09-27T02:11:17;98587.66;;;12.32;100.00
18749;BME280;9503;53.560;10.246;2022-09-27T02:13:47;98575.59;;;12.22;100.00
18749;BME280;9503;53.560;10.246;2022-09-27T02:16:22;98579.88;;;12.23;100.00
18749;BME280;9503;53.560;10.246;2022-09-27T02:18:59;98570.50;;;12.28;100.00
18749;BME280;9503;53.560;10.246;2022-09-27T02:21:36;98570.50;;;12.32;100.00
18749;BME280;9503;53.560;10.246;2022-09-27T02:24:05;98576.56;;;12.39;100.00
18749;BME280;9503;53.560;10.246;2022-09-27T02:26:38;98575.69;;;12.35;100.00
18749;BME280;9503;53.560;10.246;2022-09-27T02:29:09;98571.41;;;12.34;100.00
18749;BME280;9503;53.560;10.246;2022-09-27T02:31:38;98566.22;;;12.31;100.00
18749;BME280;9503;53.560;10.246;2022-09-27T02:34:07;98570.56;;;12.37;100.00
18749;BME280;9503;53.560;10.246;2022-09-27T02:36:37;98563.66;;;12.33;100.00
18749;BME280;9503;53.560;10.246;2022-09-27T02:39:04;98563.66;;;12.31;100.00
18749;BME280;9503;53.560;10.246;2022-09-27T02:41:30;98567.09;;;12.27;100.00
18749;BME280;9503;53.560;10.246;2022-09-27T02:43:58;98564.47;;;12.20;100.00
18749;BME280;9503;53.560;10.246;2022-09-27T02:46:42;98564.53;;;12.32;100.00
18749;BME280;9503;53.560;10.246;2022-09-27T02:49:23;98559.41;;;12.35;100.00
18749;BME280;9503;53.560;10.246;2022-09-27T02:51:59;98565.38;;;12.32;100.00
18749;BME280;9503;53.560;10.246;2022-09-27T02:54:38;98561.13;;;12.36;100.00
18749;BME280;9503;53.560;10.246;2022-09-27T02:57:17;98557.72;;;12.40;100.00
18749;BME280;9503;53.560;10.246;2022-09-27T02:59:52;98554.25;;;12.33;100.00
18749;BME280;9503;53.560;10.246;2022-09-27T03:02:31;98561.06;;;12.25;100.00
18749;BME280;9503;53.560;10.246;2022-09-27T03:05:01;98554.25;;;12.32;100.00
18749;BME280;9503;53.560;10.246;2022-09-27T03:07:33;98548.25;;;12.28;100.00
18749;BME280;9503;53.560;10.246;2022-09-27T03:10:00;98543.91;;;12.26;100.00
18749;BME280;9503;53.560;10.246;2022-09-27T03:12:27;98545.69;;;12.33;100.00
18749;BME280;9503;53.560;10.246;2022-09-27T03:14:54;98540.53;;;12.33;100.00
18749;BME280;9503;53.560;10.246;2022-09-27T03:17:21;98537.09;;;12.28;100.00
18749;BME280;9503;53.560;10.246;2022-09-27T03:19:49;98539.63;;;12.20;100.00
18749;BME280;9503;53.560;10.246;2022-09-27T03:22:16;98534.50;;;12.20;100.00
18749;BME280;9503;53.560;10.246;2022-09-27T03:24:43;98537.09;;;12.31;100.00
18749;BME280;9503;53.560;10.246;2022-09-27T03:27:10;98535.41;;;12.30;100.00
18749;BME280;9503;53.560;10.246;2022-09-27T03:29:37;98532.00;;;12.35;100.00
18749;BME280;9503;53.560;10.246;2022-09-27T03:32:03;98531.13;;;12.33;100.00
18749;BME280;9503;53.560;10.246;2022-09-27T03:34:30;98530.28;;;12.36;100.00
18749;BME280;9503;53.560;10.246;2022-09-27T03:36:58;98523.41;;;12.30;100.00
18749;BME280;9503;53.560;10.246;2022-09-27T03:39:24;98520.84;;;12.32;100.00
18749;BME280;9503;53.560;10.246;2022-09-27T03:41:51;98515.72;;;12.38;100.00
18749;BME280;9503;53.560;10.246;2022-09-27T03:44:18;98521.72;;;12.37;100.00
18749;BME280;9503;53.560;10.246;2022-09-27T03:46:45;98518.31;;;12.41;100.00
18749;BME280;9503;53.560;10.246;2022-09-27T03:49:11;98523.44;;;12.41;100.00
18749;BME280;9503;53.560;10.246;2022-09-27T03:51:38;98516.59;;;12.38;100.00
18749;BME280;9503;53.560;10.246;2022-09-27T03:54:07;98518.31;;;12.39;100.00
18749;BME280;9503;53.560;10.246;2022-09-27T03:56:33;98515.72;;;12.36;100.00
18749;BME280;9503;53.560;10.246;2022-09-27T03:59:00;98514.84;;;12.30;100.00
18749;BME280;9503;53.560;10.246;2022-09-27T04:01:26;98501.97;;;12.25;100.00
18749;BME280;9503;53.560;10.246;2022-09-27T04:03:53;98513.13;;;12.32;100.00
18749;BME280;9503;53.560;10.246;2022-09-27T04:06:20;98511.41;;;12.28;100.00
18749;BME280;9503;53.560;10.246;2022-09-27T04:08:47;98502.00;;;12.33;100.00
18749;BME280;9503;53.560;10.246;2022-09-27T04:11:15;98507.16;;;12.36;100.00
18749;BME280;9503;53.560;10.246;2022-09-27T04:13:41;98503.75;;;12.38;100.00
18749;BME280;9503;53.560;10.246;2022-09-27T04:16:09;98510.59;;;12.39;100.00
18749;BME280;9503;53.560;10.246;2022-09-27T04:18:35;98508.03;;;12.38;100.00
18749;BME280;9503;53.560;10.246;2022-09-27T04:21:02;98507.13;;;12.31;100.00
18749;BME280;9503;53.560;10.246;2022-09-27T04:23:29;98507.13;;;12.30;100.00
18749;BME280;9503;53.560;10.246;2022-09-27T04:25:55;98501.09;;;12.25;100.00
18749;BME280;9503;53.560;10.246;2022-09-27T04:28:23;98499.47;;;12.37;100.00
18749;BME280;9503;53.560;10.246;2022-09-27T04:30:50;98506.28;;;12.31;100.00
18749;BME280;9503;53.560;10.246;2022-09-27T04:33:17;98502.81;;;12.20;100.00
18749;BME280;9503;53.560;10.246;2022-09-27T04:35:43;98506.28;;;12.31;100.00
18749;BME280;9503;53.560;10.246;2022-09-27T04:38:28;98509.78;;;12.42;100.00
18749;BME280;9503;53.560;10.246;2022-09-27T04:40:54;98502.88;;;12.35;100.00
18749;BME280;9503;53.560;10.246;2022-09-27T04:43:21;98505.41;;;12.33;100.00
18749;BME280;9503;53.560;10.246;2022-09-27T04:45:49;98501.06;;;12.17;100.00
18749;BME280;9503;53.560;10.246;2022-09-27T04:48:16;98504.59;;;12.36;100.00
18749;BME280;9503;53.560;10.246;2022-09-27T04:50:42;98503.78;;;12.46;100.00
18749;BME280;9503;53.560;10.246;2022-09-27T04:53:12;98504.59;;;12.39;100.00
18749;BME280;9503;53.560;10.246;2022-09-27T04:55:39;98502.00;;;12.30;100.00
18749;BME280;9503;53.560;10.246;2022-09-27T04:58:05;98501.16;;;12.34;100.00
18749;BME280;9503;53.560;10.246;2022-09-27T05:00:32;98499.47;;;12.39;100.00
18749;BME280;9503;53.560;10.246;2022-09-27T05:03:00;98498.59;;;12.35;100.00
18749;BME280;9503;53.560;10.246;2022-09-27T05:05:27;98499.50;;;12.45;100.00
18749;BME280;9503;53.560;10.246;2022-09-27T05:07:54;98498.63;;;12.44;100.00
18749;BME280;9503;53.560;10.246;2022-09-27T05:10:20;98499.53;;;12.53;100.00
18749;BME280;9503;53.560;10.246;2022-09-27T05:12:48;98506.31;;;12.40;100.00
18749;BME280;9503;53.560;10.246;2022-09-27T05:15:15;98502.09;;;12.50;100.00
18749;BME280;9503;53.560;10.246;2022-09-27T05:17:41;98502.09;;;12.50;100.00
18749;BME280;9503;53.560;10.246;2022-09-27T05:20:09;98503.81;;;12.52;100.00
18749;BME280;9503;53.560;10.246;2022-09-27T05:22:38;98501.28;;;12.58;100.00
18749;BME280;9503;53.560;10.246;2022-09-27T05:25:05;98500.41;;;12.58;100.00
18749;BME280;9503;53.560;10.246;2022-09-27T05:27:32;98498.59;;;12.40;100.00
18749;BME280;9503;53.560;10.246;2022-09-27T05:29:59;98506.28;;;12.32;100.00
18749;BME280;9503;53.560;10.246;2022-09-27T05:32:26;98494.34;;;12.42;100.00
18749;BME280;9503;53.560;10.246;2022-09-27T05:34:53;98503.78;;;12.44;100.00
18749;BME280;9503;53.560;10.246;2022-09-27T05:37:22;98501.19;;;12.37;100.00
18749;BME280;9503;53.560;10.246;2022-09-27T05:39:48;98504.63;;;12.45;100.00
18749;BME280;9503;53.560;10.246;2022-09-27T05:42:15;98502.97;;;12.56;100.00
18749;BME280;9503;53.560;10.246;2022-09-27T05:44:42;98502.94;;;12.50;100.00
18749;BME280;9503;53.560;10.246;2022-09-27T05:47:13;98503.81;;;12.52;100.00
18749;BME280;9503;53.560;10.246;2022-09-27T05:49:40;98507.25;;;12.53;100.00
18749;BME280;9503;53.560;10.246;2022-09-27T05:52:06;98511.59;;;12.64;100.00
18749;BME280;9503;53.560;10.246;2022-09-27T05:54:34;98497.81;;;12.55;100.00
18749;BME280;9503;53.560;10.246;2022-09-27T05:57:01;98503.84;;;12.61;100.00
18749;BME280;9503;53.560;10.246;2022-09-27T05:59:28;98508.97;;;12.61;100.00
18749;BME280;9503;53.560;10.246;2022-09-27T06:01:54;98508.97;;;12.60;100.00
18749;BME280;9503;53.560;10.246;2022-09-27T06:04:23;98514.94;;;12.54;100.00
18749;BME280;9503;53.560;10.246;2022-09-27T06:06:50;98513.25;;;12.61;100.00
18749;BME280;9503;53.560;10.246;2022-09-27T06:09:16;98511.44;;;12.37;100.00
18749;BME280;9503;53.560;10.246;2022-09-27T06:11:44;98511.50;;;12.43;100.00
18749;BME280;9503;53.560;10.246;2022-09-27T06:14:11;98511.38;;;12.23;100.00
18749;BME280;9503;53.560;10.246;2022-09-27T06:16:38;98508.81;;;12.22;100.00
18749;BME280;9503;53.560;10.246;2022-09-27T06:19:04;98511.25;;;11.99;100.00
18749;BME280;9503;53.560;10.246;2022-09-27T06:21:31;98508.72;;;12.06;100.00
18749;BME280;9503;53.560;10.246;2022-09-27T06:23:58;98510.47;;;12.18;100.00
18749;BME280;9503;53.560;10.246;2022-09-27T06:26:25;98520.66;;;12.01;100.00
18749;BME280;9503;53.560;10.246;2022-09-27T06:28:53;98511.34;;;12.18;100.00
18749;BME280;9503;53.560;10.246;2022-09-27T06:31:21;98510.50;;;12.23;100.00
18749;BME280;9503;53.560;10.246;2022-09-27T06:33:48;98515.59;;;12.12;100.00
18749;BME280;9503;53.560;10.246;2022-09-27T06:36:15;98510.56;;;12.27;100.00
18749;BME280;9503;53.560;10.246;2022-09-27T06:38:42;98514.75;;;12.14;100.00
18749;BME280;9503;53.560;10.246;2022-09-27T06:41:12;98518.28;;;12.32;100.00
18749;BME280;9503;53.560;10.246;2022-09-27T06:43:39;98520.78;;;12.24;100.00
18749;BME280;9503;53.560;10.246;2022-09-27T06:46:07;98513.09;;;12.20;100.00
18749;BME280;9503;53.560;10.246;2022-09-27T06:48:34;98515.72;;;12.38;100.00
18749;BME280;9503;53.560;10.246;2022-09-27T06:51:04;98526.91;;;12.44;100.00
18749;BME280;9503;53.560;10.246;2022-09-27T06:53:30;98522.41;;;12.08;100.00
18749;BME280;9503;53.560;10.246;2022-09-27T06:55:57;98522.50;;;12.24;100.00
18749;BME280;9503;53.560;10.246;2022-09-27T06:58:25;98525.03;;;12.17;100.00
18749;BME280;9503;53.560;10.246;2022-09-27T07:01:10;98529.31;;;12.17;100.00
18749;BME280;9503;53.560;10.246;2022-09-27T07:03:37;98521.59;;;12.15;100.00
18749;BME280;9503;53.560;10.246;2022-09-27T07:06:10;98537.00;;;12.14;100.00
18749;BME280;9503;53.560;10.246;2022-09-27T07:08:40;98531.88;;;12.14;100.00
18749;BME280;9503;53.560;10.246;2022-09-27T07:11:07;98529.09;;;11.83;100.00
18749;BME280;9503;53.560;10.246;2022-09-27T07:13:34;98531.78;;;11.99;100.00
18749;BME280;9503;53.560;10.246;2022-09-27T07:16:04;98540.25;;;11.87;100.00
18749;BME280;9503;53.560;10.246;2022-09-27T07:18:35;98530.81;;;11.86;100.00
18749;BME280;9503;53.560;10.246;2022-09-27T07:21:08;98536.81;;;11.83;100.00
18749;BME280;9503;53.560;10.246;2022-09-27T07:23:38;98542.09;;;12.05;100.00
18749;BME280;9503;53.560;10.246;2022-09-27T07:26:07;98539.38;;;11.83;100.00
18749;BME280;9503;53.560;10.246;2022-09-27T07:28:38;98547.13;;;11.91;100.00
18749;BME280;9503;53.560;10.246;2022-09-27T07:31:11;98546.41;;;12.09;100.00
18749;BME280;9503;53.560;10.246;2022-09-27T07:33:42;98557.63;;;12.25;100.00
18749;BME280;9503;53.560;10.246;2022-09-27T07:36:11;98555.84;;;12.13;100.00
18749;BME280;9503;53.560;10.246;2022-09-27T07:38:39;98546.44;;;12.16;100.00
18749;BME280;9503;53.560;10.246;2022-09-27T07:41:06;98553.47;;;12.42;100.00
18749;BME280;9503;53.560;10.246;2022-09-27T07:43:33;98560.94;;;12.07;100.00
18749;BME280;9503;53.560;10.246;2022-09-27T07:45:59;98562.50;;;11.88;100.00
18749;BME280;9503;53.560;10.246;2022-09-27T07:48:26;98560.91;;;12.02;100.00
18749;BME280;9503;53.560;10.246;2022-09-27T07:50:55;98560.22;;;12.28;100.00
18749;BME280;9503;53.560;10.246;2022-09-27T07:53:21;98563.53;;;12.11;100.00
18749;BME280;9503;53.560;10.246;2022-09-27T07:55:49;98569.50;;;12.09;100.00
18749;BME280;9503;53.560;10.246;2022-09-27T07:58:19;98573.97;;;12.34;100.00
18749;BME280;9503;53.560;10.246;2022-09-27T08:00:46;98569.78;;;12.49;100.00
18749;BME280;9503;53.560;10.246;2022-09-27T08:03:14;98583.41;;;12.40;100.00
18749;BME280;9503;53.560;10.246;2022-09-27T08:05:42;98576.59;;;12.42;100.00
18749;BME280;9503;53.560;10.246;2022-09-27T08:08:10;98574.06;;;12.51;100.00
18749;BME280;9503;53.560;10.246;2022-09-27T08:10:37;98582.50;;;12.27;100.00
18749;BME280;9503;53.560;10.246;2022-09-27T08:13:09;98581.81;;;12.60;100.00
18749;BME280;9503;53.560;10.246;2022-09-27T08:15:36;98580.75;;;12.23;100.00
18749;BME280;9503;53.560;10.246;2022-09-27T08:18:04;98583.50;;;12.54;100.00
18749;BME280;9503;53.560;10.246;2022-09-27T08:20:31;98591.38;;;12.86;100.00
18749;BME280;9503;53.560;10.246;2022-09-27T08:22:58;98597.28;;;12.65;100.00
18749;BME280;9503;53.560;10.246;2022-09-27T08:25:26;98594.53;;;12.39;100.00
18749;BME280;9503;53.560;10.246;2022-09-27T08:27:55;98599.06;;;12.80;100.00
18749;BME280;9503;53.560;10.246;2022-09-27T08:30:22;98604.06;;;12.55;100.00
18749;BME280;9503;53.560;10.246;2022-09-27T08:32:54;98611.97;;;12.87;100.00
18749;BME280;9503;53.560;10.246;2022-09-27T08:35:20;98612.63;;;12.51;100.00
18749;BME280;9503;53.560;10.246;2022-09-27T08:37:52;98606.75;;;12.73;100.00
18749;BME280;9503;53.560;10.246;2022-09-27T08:40:19;98611.16;;;13.00;100.00
18749;BME280;9503;53.560;10.246;2022-09-27T08:42:59;98616.09;;;12.56;100.00
18749;BME280;9503;53.560;10.246;2022-09-27T08:45:30;98612.78;;;12.83;100.00
18749;BME280;9503;53.560;10.246;2022-09-27T08:48:00;98614.59;;;13.01;100.00
18749;BME280;9503;53.560;10.246;2022-09-27T08:50:29;98622.34;;;13.10;100.00
18749;BME280;9503;53.560;10.246;2022-09-27T08:53:02;98625.78;;;13.14;100.00
18749;BME280;9503;53.560;10.246;2022-09-27T08:55:33;98618.09;;;13.17;100.00
18749;BME280;9503;53.560;10.246;2022-09-27T08:58:12;98615.28;;;12.65;100.00
18749;BME280;9503;53.560;10.246;2022-09-27T09:00:41;98620.28;;;12.47;100.00
18749;BME280;9503;53.560;10.246;2022-09-27T09:03:15;98624.66;;;12.60;100.00
18749;BME280;9503;53.560;10.246;2022-09-27T09:05:49;98623.97;;;12.90;100.00
18749;BME280;9503;53.560;10.246;2022-09-27T09:08:24;98624.63;;;12.54;100.00
18749;BME280;9503;53.560;10.246;2022-09-27T09:10:58;98619.47;;;12.51;100.00
18749;BME280;9503;53.560;10.246;2022-09-27T09:13:59;98622.03;;;12.54;100.00
18749;BME280;9503;53.560;10.246;2022-09-27T09:16:36;98622.84;;;12.42;100.00
18749;BME280;9503;53.560;10.246;2022-09-27T09:19:21;98634.28;;;12.96;100.00
18749;BME280;9503;53.560;10.246;2022-09-27T09:21:58;98633.47;;;13.00;100.00
18749;BME280;9503;53.560;10.246;2022-09-27T09:24:42;98637.03;;;13.30;100.00
18749;BME280;9503;53.560;10.246;2022-09-27T09:27:17;98631.59;;;12.78;100.00
18749;BME280;9503;53.560;10.246;2022-09-27T09:30:01;98640.31;;;13.06;100.00
18749;BME280;9503;53.560;10.246;2022-09-27T09:32:37;98631.66;;;12.84;100.00
18749;BME280;9503;53.560;10.246;2022-09-27T09:35:13;98640.16;;;12.73;100.00
18749;BME280;9503;53.560;10.246;2022-09-27T09:37:44;98635.09;;;12.90;100.00
18749;BME280;9503;53.560;10.246;2022-09-27T09:40:18;98640.91;;;12.54;100.00
18749;BME280;9503;53.560;10.246;2022-09-27T09:42:51;98644.31;;;12.49;100.00
18749;BME280;9503;53.560;10.246;2022-09-27T09:45:27;98649.47;;;12.52;100.00
18749;BME280;9503;53.560;10.246;2022-09-27T09:47:58;98654.66;;;12.62;100.00
18749;BME280;9503;53.560;10.246;2022-09-27T09:50:30;98648.66;;;12.62;100.00
18749;BME280;9503;53.560;10.246;2022-09-27T09:53:04;98643.41;;;12.48;100.00
18749;BME280;9503;53.560;10.246;2022-09-27T09:55:37;98649.31;;;12.30;100.00
18749;BME280;9503;53.560;10.246;2022-09-27T09:58:18;98649.50;;;12.59;100.00
18749;BME280;9503;53.560;10.246;2022-09-27T10:00:50;98665.66;;;12.40;100.00
18749;BME280;9503;53.560;10.246;2022-09-27T10:03:19;98660.19;;;11.99;100.00
18749;BME280;9503;53.560;10.246;2022-09-27T10:05:46;98657.13;;;12.47;100.00
18749;BME280;9503;53.560;10.246;2022-09-27T10:08:16;98657.28;;;12.68;100.00
18749;BME280;9503;53.560;10.246;2022-09-27T10:10:43;98654.81;;;12.87;100.00
18749;BME280;9503;53.560;10.246;2022-09-27T10:13:14;98659.84;;;12.67;100.00
18749;BME280;9503;53.560;10.246;2022-09-27T10:15:42;98663.31;;;12.77;100.00
18749;BME280;9503;53.560;10.246;2022-09-27T10:18:15;98668.25;;;12.41;100.00
18749;BME280;9503;53.560;10.246;2022-09-27T10:20:46;98661.28;;;12.27;100.00
18749;BME280;9503;53.560;10.246;2022-09-27T10:23:16;98660.50;;;12.37;100.00
18749;BME280;9503;53.560;10.246;2022-09-27T10:25:48;98666.44;;;12.31;100.00
18749;BME280;9503;53.560;10.246;2022-09-27T10:28:28;98659.63;;;12.35;100.00
18749;BME280;9503;53.560;10.246;2022-09-27T10:30:58;98668.41;;;12.70;100.00
18749;BME280;9503;53.560;10.246;2022-09-27T10:33:28;98673.34;;;12.40;100.00
18749;BME280;9503;53.560;10.246;2022-09-27T10:35:56;98672.75;;;12.78;100.00
18749;BME280;9503;53.560;10.246;2022-09-27T10:38:25;98675.31;;;12.78;100.00
18749;BME280;9503;53.560;10.246;2022-09-27T10:40:53;98679.75;;;13.03;100.00
18749;BME280;9503;53.560;10.246;2022-09-27T10:43:29;98678.09;;;13.08;100.00
18749;BME280;9503;53.560;10.246;2022-09-27T10:46:03;98673.59;;;12.75;100.00
18749;BME280;9503;53.560;10.246;2022-09-27T10:48:32;98682.81;;;12.44;100.00
18749;BME280;9503;53.560;10.246;2022-09-27T10:51:00;98682.03;;;12.53;100.00
18749;BME280;9503;53.560;10.246;2022-09-27T10:53:29;98688.00;;;12.50;100.00
18749;BME280;9503;53.560;10.246;2022-09-27T10:55:57;98681.44;;;12.96;100.00
18749;BME280;9503;53.560;10.246;2022-09-27T10:58:25;98681.25;;;12.64;100.00
18749;BME280;9503;53.560;10.246;2022-09-27T11:00:54;98693.22;;;12.56;100.00
18749;BME280;9503;53.560;10.246;2022-09-27T11:03:22;98693.91;;;12.38;100.00
18749;BME280;9503;53.560;10.246;2022-09-27T11:05:52;98688.25;;;12.90;100.00
18749;BME280;9503;53.560;10.246;2022-09-27T11:08:22;98693.16;;;12.55;100.00
18749;BME280;9503;53.560;10.246;2022-09-27T11:11:04;98700.31;;;12.94;100.00
18749;BME280;9503;53.560;10.246;2022-09-27T11:13:40;98697.84;;;13.17;100.00
18749;BME280;9503;53.560;10.246;2022-09-27T11:19:03;98698.00;;;13.44;100.00
18749;BME280;9503;53.560;10.246;2022-09-27T11:21:40;98698.78;;;13.28;100.00
18749;BME280;9503;53.560;10.246;2022-09-27T11:24:20;98700.50;;;13.24;100.00
18749;BME280;9503;53.560;10.246;2022-09-27T11:27:01;98704.84;;;13.39;100.00
18749;BME280;9503;53.560;10.246;2022-09-27T11:29:37;98700.69;;;13.86;100.00
18749;BME280;9503;53.560;10.246;2022-09-27T11:32:22;98704.16;;;13.98;100.00
18749;BME280;9503;53.560;10.246;2022-09-27T11:37:52;98693.78;;;13.66;100.00
18749;BME280;9503;53.560;10.246;2022-09-27T11:40:30;98691.84;;;13.16;100.00
18749;BME280;9503;53.560;10.246;2022-09-27T11:43:24;98697.16;;;13.47;100.00
18749;BME280;9503;53.560;10.246;2022-09-27T11:45:59;98702.44;;;14.02;100.00
18749;BME280;9503;53.560;10.246;2022-09-27T11:48:41;98699.00;;;14.24;100.00
18749;BME280;9503;53.560;10.246;2022-09-27T11:51:22;98711.06;;;14.60;99.57
18749;BME280;9503;53.560;10.246;2022-09-27T11:54:04;98705.91;;;14.67;97.38
18749;BME280;9503;53.560;10.246;2022-09-27T11:56:42;98708.50;;;14.57;95.87
18749;BME280;9503;53.560;10.246;2022-09-27T11:59:37;98705.91;;;14.19;98.17
18749;BME280;9503;53.560;10.246;2022-09-27T12:02:23;98717.97;;;14.57;97.29
18749;BME280;9503;53.560;10.246;2022-09-27T12:05:18;98711.91;;;14.44;95.36
18749;BME280;9503;53.560;10.246;2022-09-27T12:07:55;98715.38;;;14.78;96.31
18749;BME280;9503;53.560;10.246;2022-09-27T12:10:28;98721.41;;;14.62;96.25
18749;BME280;9503;53.560;10.246;2022-09-27T12:12:56;98717.06;;;14.36;96.06
18749;BME280;9503;53.560;10.246;2022-09-27T12:15:27;98721.34;;;15.03;95.48
18749;BME280;9503;53.560;10.246;2022-09-27T12:18:04;98713.63;;;14.88;95.02
18749;BME280;9503;53.560;10.246;2022-09-27T12:20:34;98723.03;;;15.15;94.04
18749;BME280;9503;53.560;10.246;2022-09-27T12:23:11;98722.09;;;15.34;92.53
18749;BME280;9503;53.560;10.246;2022-09-27T12:25:49;98719.44;;;15.59;92.13
18749;BME280;9503;53.560;10.246;2022-09-27T12:28:28;98716.78;;;15.80;91.36
18749;BME280;9503;53.560;10.246;2022-09-27T12:31:04;98717.31;;;16.28;90.19
18749;BME280;9503;53.560;10.246;2022-09-27T12:33:38;98715.44;;;16.48;88.40
18749;BME280;9503;53.560;10.246;2022-09-27T12:36:09;98715.66;;;16.19;88.25
18749;BME280;9503;53.560;10.246;2022-09-27T12:38:44;98714.97;;;15.93;88.86
18749;BME280;9503;53.560;10.246;2022-09-27T12:41:16;98724.91;;;16.49;88.55
18749;BME280;9503;53.560;10.246;2022-09-27T12:43:47;98721.16;;;15.60;88.75
18749;BME280;9503;53.560;10.246;2022-09-27T12:46:23;98722.88;;;15.64;88.88
18749;BME280;9503;53.560;10.246;2022-09-27T12:48:57;98723.81;;;15.38;87.16
18749;BME280;9503;53.560;10.246;2022-09-27T12:51:32;98717.09;;;14.84;88.08
18749;BME280;9503;53.560;10.246;2022-09-27T12:54:16;98721.41;;;14.71;90.00
18749;BME280;9503;53.560;10.246;2022-09-27T12:56:50;98714.47;;;14.90;89.25
18749;BME280;9503;53.560;10.246;2022-09-27T12:59:43;98723.09;;;14.83;91.09
18749;BME280;9503;53.560;10.246;2022-09-27T13:02:52;98725.69;;;14.71;91.96
18749;BME280;9503;53.560;10.246;2022-09-27T13:06:03;98722.22;;;14.93;89.34
18749;BME280;9503;53.560;10.246;2022-09-27T13:11:42;98720.53;;;14.58;90.80
18749;BME280;9503;53.560;10.246;2022-09-27T13:14:17;98719.63;;;15.07;90.29
18749;BME280;9503;53.560;10.246;2022-09-27T13:16:46;98725.59;;;15.21;90.03
18749;BME280;9503;53.560;10.246;2022-09-27T13:19:36;98725.72;;;14.63;91.09
18749;BME280;9503;53.560;10.246;2022-09-27T13:22:04;98728.19;;;15.12;90.96
18749;BME280;9503;53.560;10.246;2022-09-27T13:24:40;98725.66;;;14.11;90.91